Time;durP1;ratioP1;P1;durP2;ratioP2;P2;SDS_P1;SDS_P2;PMS_P1;PMS_P2;Temp;Humidity;BMP_temperature;BMP_pressure;BME280_temperature;BME280_humidity;BME280_pressure;Samples;Min_cycle;Max_cycle;Signal;HPM_P1;HPM_P2
2023/08/17 00:00:01;;;;;;;4.97;1.10;;;;;;;17.50;78.35;100876.25;4898738;29;20108;-95
2023/08/17 00:02:26;;;;;;;9.18;1.63;;;;;;;17.44;78.67;100871.53;4900397;29;20032;-95
2023/08/17 00:04:52;;;;;;;4.55;1.45;;;;;;;17.43;79.59;100882.91;4900155;29;20039;-95
2023/08/17 00:07:17;;;;;;;3.90;1.17;;;;;;;17.33;80.27;100880.19;4930231;29;20028;-96
2023/08/17 00:09:42;;;;;;;1.67;1.02;;;;;;;17.38;81.29;100884.22;4898694;29;20024;-95
2023/08/17 00:12:08;;;;;;;3.35;1.88;;;;;;;17.36;82.00;100879.13;4898430;29;20028;-95
2023/08/17 00:14:33;;;;;;;6.93;1.90;;;;;;;17.35;81.83;100882.69;4930189;29;20021;-96
2023/08/17 00:16:58;;;;;;;5.85;1.67;;;;;;;17.58;82.54;100882.66;4930265;29;20369;-95
2023/08/17 00:19:24;;;;;;;5.38;2.63;;;;;;;17.59;82.22;100892.16;4930088;29;20028;-95
2023/08/17 00:21:51;;;;;;;4.55;2.10;;;;;;;17.50;82.81;100886.69;4898332;29;20032;-95
2023/08/17 00:24:16;;;;;;;3.00;1.60;;;;;;;17.45;83.06;100883.63;4929554;29;20027;-95
2023/08/17 00:26:41;;;;;;;3.42;1.98;;;;;;;17.49;80.98;100890.28;4899204;29;20033;-95
2023/08/17 00:29:07;;;;;;;4.00;1.75;;;;;;;17.54;81.38;100892.50;4899765;29;20398;-95
2023/08/17 00:31:32;;;;;;;3.38;1.55;;;;;;;17.51;82.35;100888.38;4899826;29;20085;-95
2023/08/17 00:33:58;;;;;;;1.98;1.45;;;;;;;17.54;82.57;100884.69;4898276;29;20036;-96
2023/08/17 00:36:23;;;;;;;3.70;2.13;;;;;;;17.39;83.09;100889.34;4930110;29;20032;-96
2023/08/17 00:38:49;;;;;;;3.03;1.40;;;;;;;17.27;84.46;100895.53;4930007;29;20067;-96
2023/08/17 00:41:14;;;;;;;3.88;1.55;;;;;;;17.23;84.81;100894.09;4929917;29;20407;-96
2023/08/17 00:43:39;;;;;;;7.72;2.08;;;;;;;17.28;84.41;100897.19;4898095;29;20088;-95
2023/08/17 00:46:05;;;;;;;4.55;1.95;;;;;;;17.29;84.22;100893.63;4899403;29;20052;-96
2023/08/17 00:48:31;;;;;;;2.17;1.73;;;;;;;17.34;84.14;100896.72;4898068;29;20039;-95
2023/08/17 00:50:58;;;;;;;4.20;2.38;;;;;;;17.26;84.64;100899.06;4899183;29;20132;-96
2023/08/17 00:53:27;;;;;;;6.97;2.20;;;;;;;17.22;84.94;100892.44;4929540;29;20035;-95
2023/08/17 00:55:53;;;;;;;3.85;1.77;;;;;;;17.26;83.82;100893.84;4897879;29;20039;-96
2023/08/17 00:58:22;;;;;;;5.45;1.58;;;;;;;17.23;80.65;100888.88;4929264;29;20108;-96
2023/08/17 01:00:48;;;;;;;10.32;1.63;;;;;;;17.29;76.60;100894.47;4898539;29;20391;-96
2023/08/17 01:03:16;;;;;;;2.38;1.50;;;;;;;17.34;74.75;100894.09;4897147;29;20028;-95
2023/08/17 01:05:41;;;;;;;2.22;1.52;;;;;;;17.28;75.19;100898.00;4929360;29;20084;-96
2023/08/17 01:08:07;;;;;;;5.40;1.60;;;;;;;17.21;76.62;100896.00;4898175;29;20024;-96
2023/08/17 01:10:51;;;;;;;3.97;1.48;;;;;;;17.21;77.14;100906.44;4929209;29;20036;-96
2023/08/17 01:13:24;;;;;;;4.75;1.70;;;;;;;17.23;78.70;100904.53;4897779;29;20031;-96
2023/08/17 01:15:56;;;;;;;5.53;2.00;;;;;;;17.09;82.01;100906.44;4897528;29;20036;-95
2023/08/17 01:18:26;;;;;;;8.85;2.85;;;;;;;17.10;86.13;100902.06;4929324;29;20028;-94
2023/08/17 01:20:53;;;;;;;5.93;2.80;;;;;;;16.93;91.89;100908.56;4898704;29;20484;-96
2023/08/17 01:23:19;;;;;;;5.38;2.72;;;;;;;16.85;94.23;100906.56;4930451;29;20021;-96
2023/08/17 01:25:45;;;;;;;7.57;2.88;;;;;;;16.75;95.81;100907.31;4929962;29;20028;-96
2023/08/17 01:28:11;;;;;;;6.28;2.72;;;;;;;16.72;96.59;100912.78;4929554;29;20028;-96
2023/08/17 01:31:05;;;;;;;8.20;3.28;;;;;;;16.69;96.94;100903.41;4897903;29;20071;-96
2023/08/17 01:33:40;;;;;;;6.72;3.05;;;;;;;16.59;98.28;100903.28;4897877;29;20088;-96
2023/08/17 01:36:14;;;;;;;5.82;2.60;;;;;;;16.53;98.78;100910.72;4929419;29;20092;-96
2023/08/17 01:38:40;;;;;;;5.90;2.80;;;;;;;16.48;99.02;100904.09;4929290;29;20483;-96
2023/08/17 01:41:12;;;;;;;9.27;2.53;;;;;;;16.39;100.00;100906.56;4929089;29;20024;-96
2023/08/17 01:43:39;;;;;;;11.57;2.72;;;;;;;16.41;99.80;100902.03;4897747;29;20028;-96
2023/08/17 01:46:04;;;;;;;5.28;2.50;;;;;;;16.37;98.79;100904.06;4898874;29;20029;-96
2023/08/17 01:48:29;;;;;;;4.35;2.33;;;;;;;16.40;99.11;100910.81;4929285;29;20499;-96
2023/08/17 01:50:55;;;;;;;6.43;2.60;;;;;;;16.33;100.00;100909.59;4898409;29;20056;-96
2023/08/17 01:53:20;;;;;;;8.65;3.17;;;;;;;16.23;100.00;100909.44;4898666;29;20080;-96
2023/08/17 01:55:46;;;;;;;4.65;2.35;;;;;;;16.19;100.00;100914.06;4929860;29;20031;-96
2023/08/17 01:58:11;;;;;;;5.55;2.50;;;;;;;16.19;100.00;100915.81;4930094;29;20032;-96
2023/08/17 02:00:37;;;;;;;8.00;2.60;;;;;;;16.19;100.00;100911.47;4898460;29;20491;-96
2023/08/17 02:03:02;;;;;;;6.45;3.17;;;;;;;16.06;100.00;100908.09;4898979;29;20085;-96
2023/08/17 02:05:29;;;;;;;4.90;3.05;;;;;;;15.99;100.00;100912.06;4897444;29;20479;-96
2023/08/17 02:07:54;;;;;;;7.95;3.10;;;;;;;15.92;100.00;100916.06;4929892;29;20119;-96
2023/08/17 02:10:19;;;;;;;5.05;2.75;;;;;;;16.09;100.00;100915.66;4897220;29;20124;-95
2023/08/17 02:12:45;;;;;;;4.90;2.95;;;;;;;16.00;100.00;100916.34;4898638;29;20062;-96
2023/08/17 02:15:10;;;;;;;4.57;3.15;;;;;;;15.89;100.00;100921.50;4898063;29;20024;-96
2023/08/17 02:17:35;;;;;;;5.57;2.88;;;;;;;16.01;100.00;100915.41;4928822;29;20075;-96
2023/08/17 02:20:01;;;;;;;8.80;3.13;;;;;;;15.84;100.00;100919.22;4897262;29;20031;-96
2023/08/17 02:22:26;;;;;;;6.53;2.75;;;;;;;15.83;100.00;100915.78;4929148;29;20048;-96
2023/08/17 02:24:52;;;;;;;6.18;2.88;;;;;;;15.76;100.00;100911.97;4927533;29;20024;-95
2023/08/17 02:27:17;;;;;;;6.35;3.33;;;;;;;15.68;100.00;100919.47;4928644;29;20021;-96
2023/08/17 02:29:42;;;;;;;5.35;3.03;;;;;;;15.68;100.00;100921.22;4897649;29;20119;-96
2023/08/17 02:32:08;;;;;;;9.25;3.80;;;;;;;15.66;100.00;100921.34;4897536;29;20267;-96
2023/08/17 02:34:33;;;;;;;6.00;3.20;;;;;;;15.67;100.00;100917.78;4913781;29;20511;-96
2023/08/17 02:36:58;;;;;;;7.07;2.90;;;;;;;15.59;100.00;100917.50;4898489;29;20036;-96
2023/08/17 02:39:26;;;;;;;5.15;2.90;;;;;;;15.61;100.00;100913.03;4929421;29;20013;-96
2023/08/17 02:41:51;;;;;;;6.43;3.13;;;;;;;15.61;100.00;100913.03;4898469;29;20016;-96
2023/08/17 02:44:16;;;;;;;9.10;3.53;;;;;;;15.59;100.00;100907.09;4897811;29;20021;-96
2023/08/17 02:46:42;;;;;;;5.50;3.20;;;;;;;15.52;100.00;100904.09;4897563;29;20073;-96
2023/08/17 02:49:07;;;;;;;7.90;3.10;;;;;;;15.66;100.00;100899.72;4897976;29;20511;-96
2023/08/17 02:51:32;;;;;;;8.98;3.28;;;;;;;15.59;100.00;100904.50;4913749;29;20073;-95
2023/08/17 02:54:02;;;;;;;5.30;3.15;;;;;;;15.52;100.00;100895.47;4903335;29;20032;-96
2023/08/17 02:56:27;;;;;;;7.35;3.63;;;;;;;15.37;100.00;100897.38;4899084;29;20035;-96
2023/08/17 02:58:53;;;;;;;7.45;3.47;;;;;;;15.35;100.00;100897.47;4897843;29;20415;-96
2023/08/17 03:01:18;;;;;;;11.95;4.07;;;;;;;15.33;100.00;100895.94;4897432;29;20571;-96
2023/08/17 03:03:43;;;;;;;6.78;3.78;;;;;;;15.34;100.00;100895.00;4897024;29;20032;-96
2023/08/17 03:06:09;;;;;;;11.85;3.88;;;;;;;15.29;100.00;100892.72;4896063;29;20036;-95
2023/08/17 03:08:34;;;;;;;4.95;3.30;;;;;;;15.40;100.00;100895.38;4896461;29;20035;-94
2023/08/17 03:11:00;;;;;;;6.32;3.95;;;;;;;15.25;100.00;100895.66;4897580;29;20108;-95
2023/08/17 03:13:26;;;;;;;5.78;3.65;;;;;;;15.29;100.00;100891.88;4897605;29;20033;-96
2023/08/17 03:15:51;;;;;;;7.18;4.30;;;;;;;15.21;100.00;100889.81;4927754;29;20498;-96
2023/08/17 03:18:16;;;;;;;9.23;4.88;;;;;;;15.16;100.00;100886.69;4897161;29;20037;-93
2023/08/17 03:20:44;;;;;;;9.40;5.20;;;;;;;15.04;100.00;100884.94;4895685;29;20031;-95
2023/08/17 03:23:09;;;;;;;10.48;5.15;;;;;;;14.98;100.00;100889.66;4897748;29;20020;-94
2023/08/17 03:25:35;;;;;;;10.63;5.47;;;;;;;14.98;100.00;100887.03;4898783;29;20031;-94
2023/08/17 03:28:00;;;;;;;8.88;5.72;;;;;;;14.86;100.00;100887.88;4901063;29;20046;-94
2023/08/17 03:30:26;;;;;;;10.40;5.30;;;;;;;14.83;100.00;100885.50;4900566;29;20096;-94
2023/08/17 03:32:51;;;;;;;9.10;5.13;;;;;;;14.89;100.00;100892.88;4900524;29;20497;-94
2023/08/17 03:35:17;;;;;;;10.00;5.43;;;;;;;14.71;100.00;100889.75;4898954;29;20036;-96
2023/08/17 03:37:42;;;;;;;6.85;4.55;;;;;;;14.79;100.00;100889.22;4899331;29;20456;-96
2023/08/17 03:40:08;;;;;;;12.95;6.43;;;;;;;14.79;100.00;100894.44;4900599;29;20119;-96
2023/08/17 03:42:33;;;;;;;12.07;7.60;;;;;;;14.86;100.00;100894.84;4900598;29;20080;-96
2023/08/17 03:44:59;;;;;;;13.48;8.73;;;;;;;14.67;100.00;100890.06;4899656;29;20432;-96
2023/08/17 03:47:24;;;;;;;15.07;9.55;;;;;;;14.63;100.00;100889.47;4899603;29;20060;-96
2023/08/17 03:49:49;;;;;;;12.85;8.80;;;;;;;14.72;100.00;100893.19;4899911;29;20029;-96
2023/08/17 03:52:15;;;;;;;19.75;12.13;;;;;;;14.73;100.00;100885.28;4899576;29;20056;-95
2023/08/17 03:54:40;;;;;;;24.15;14.65;;;;;;;14.67;100.00;100884.88;4900604;29;20028;-96
2023/08/17 03:57:05;;;;;;;22.02;14.57;;;;;;;14.51;100.00;100885.88;4899066;29;20020;-96
2023/08/17 03:59:31;;;;;;;24.10;14.85;;;;;;;14.46;100.00;100887.94;4899091;29;20032;-95
2023/08/17 04:01:56;;;;;;;18.20;13.27;;;;;;;14.53;100.00;100888.34;4899109;29;20583;-96
2023/08/17 04:04:22;;;;;;;19.33;13.10;;;;;;;14.52;100.00;100879.72;4899348;29;20044;-95
2023/08/17 04:06:47;;;;;;;20.30;14.38;;;;;;;14.43;100.00;100877.75;4914740;29;20135;-94
2023/08/17 04:09:12;;;;;;;25.83;14.43;;;;;;;14.49;100.00;100879.94;4903260;29;20084;-96
2023/08/17 04:11:38;;;;;;;20.30;13.95;;;;;;;14.47;100.00;100876.63;4900189;29;20032;-96
2023/08/17 04:14:04;;;;;;;22.20;14.63;;;;;;;14.35;100.00;100880.84;4900225;29;20342;-95
2023/08/17 04:16:29;;;;;;;23.88;16.08;;;;;;;14.37;100.00;100872.97;4900457;29;20487;-95
2023/08/17 04:18:55;;;;;;;34.83;18.65;;;;;;;14.34;100.00;100871.41;4900823;29;20032;-95
2023/08/17 04:21:20;;;;;;;26.52;18.50;;;;;;;14.34;100.00;100883.56;4901309;29;20035;-96
2023/08/17 04:23:46;;;;;;;29.10;18.60;;;;;;;14.32;100.00;100880.25;4904722;29;20025;-96
2023/08/17 04:26:11;;;;;;;31.23;18.27;;;;;;;14.32;100.00;100888.03;4904960;29;20052;-95
2023/08/17 04:28:36;;;;;;;37.53;21.23;;;;;;;14.33;100.00;100881.88;4910565;29;20035;-96
2023/08/17 04:31:02;;;;;;;33.60;20.70;;;;;;;14.44;100.00;100874.22;4901706;29;20487;-96
2023/08/17 04:33:27;;;;;;;37.40;23.13;;;;;;;14.29;100.00;100870.06;4904709;29;20025;-96
2023/08/17 04:35:53;;;;;;;37.15;22.95;;;;;;;14.36;100.00;100866.09;4916409;29;20487;-96
2023/08/17 04:38:18;;;;;;;37.70;22.75;;;;;;;14.27;100.00;100877.13;4911618;29;20028;-96
2023/08/17 04:40:43;;;;;;;31.83;22.45;;;;;;;14.38;100.00;100869.44;4904360;29;20025;-96
2023/08/17 04:43:11;;;;;;;36.75;21.13;;;;;;;14.30;100.00;100882.09;4934751;29;20063;-95
2023/08/17 04:45:36;;;;;;;40.63;22.23;;;;;;;14.23;100.00;100892.06;4903124;29;20500;-96
2023/08/17 04:48:01;;;;;;;39.47;22.92;;;;;;;14.16;100.00;100882.16;4906353;29;20056;-96
2023/08/17 04:50:27;;;;;;;43.17;26.23;;;;;;;14.18;100.00;100882.91;4905975;29;20060;-96
2023/08/17 04:52:52;;;;;;;40.17;23.95;;;;;;;14.28;100.00;100892.56;4906207;29;20056;-96
2023/08/17 04:55:18;;;;;;;36.67;24.08;;;;;;;14.12;100.00;100879.78;4905009;29;20025;-95
2023/08/17 04:57:45;;;;;;;44.88;26.67;;;;;;;14.00;100.00;100890.97;4902013;29;20025;-96
2023/08/17 05:00:15;;;;;;;46.15;26.35;;;;;;;13.88;100.00;100879.59;4913518;29;20049;-96
2023/08/17 05:02:41;;;;;;;52.83;29.10;;;;;;;13.85;100.00;100878.94;4914558;29;20021;-96
2023/08/17 05:05:10;;;;;;;45.42;25.50;;;;;;;13.96;100.00;100878.28;4913181;29;20036;-96
2023/08/17 05:07:40;;;;;;;40.70;25.45;;;;;;;13.97;100.00;100869.56;5060051;23;20060;-96
2023/08/17 05:10:09;;;;;;;39.60;24.92;;;;;;;14.11;100.00;100878.09;4914823;29;20049;-96
2023/08/17 05:12:35;;;;;;;41.58;24.05;;;;;;;14.04;100.00;100889.81;4898567;29;20025;-96
2023/08/17 05:15:02;;;;;;;47.80;27.92;;;;;;;13.97;100.00;100888.53;4892671;29;20032;-96
2023/08/17 05:17:27;;;;;;;40.97;24.25;;;;;;;14.07;100.00;100881.84;4893594;29;20029;-96
2023/08/17 05:19:53;;;;;;;40.85;23.25;;;;;;;14.13;100.00;100878.84;4888393;29;20036;-96
2023/08/17 05:22:20;;;;;;;35.92;21.42;;;;;;;14.01;100.00;100877.03;4891533;29;20502;-96
2023/08/17 05:24:46;;;;;;;40.72;22.30;;;;;;;14.06;100.00;100890.56;4875301;29;20043;-96
2023/08/17 05:27:13;;;;;;;38.70;24.73;;;;;;;14.08;100.00;100882.69;4889488;29;20392;-96
2023/08/17 05:29:41;;;;;;;50.17;25.63;;;;;;;14.09;100.00;100880.00;4892362;29;20061;-96
2023/08/17 05:32:07;;;;;;;42.33;22.98;;;;;;;14.17;100.00;100881.22;5000471;23;20082;-96
2023/08/17 05:34:34;;;;;;;43.90;24.85;;;;;;;14.35;100.00;100874.84;4912925;29;20028;-96
2023/08/17 05:37:03;;;;;;;41.22;21.70;;;;;;;14.46;100.00;100882.75;4915441;29;20083;-96
2023/08/17 05:39:32;;;;;;;38.45;23.45;;;;;;;14.49;100.00;100886.91;4920254;29;20043;-96
2023/08/17 05:41:57;;;;;;;40.78;22.90;;;;;;;14.59;100.00;100888.00;4911246;29;20048;-96
2023/08/17 05:44:23;;;;;;;44.70;24.33;;;;;;;14.66;100.00;100891.00;4915682;29;20056;-96
2023/08/17 05:46:51;;;;;;;40.95;22.95;;;;;;;14.75;100.00;100893.81;4916966;29;20008;-96
2023/08/17 05:49:16;;;;;;;38.90;23.48;;;;;;;14.79;100.00;100888.41;4915427;29;20040;-96
2023/08/17 05:52:22;;;;;;;33.20;20.27;;;;;;;15.03;100.00;100878.09;5605789;23;20015;-96
2023/08/17 05:54:54;;;;;;;37.10;22.00;;;;;;;15.09;100.00;100875.06;5250508;23;20064;-96
2023/08/17 06:02:49;;;;;;;41.65;23.50;;;;;;;15.32;100.00;100882.09;5154268;23;20047;-96
2023/08/17 06:07:55;;;;;;;37.92;21.38;;;;;;;15.48;100.00;100886.22;5225391;23;20056;-96
2023/08/17 06:10:24;;;;;;;36.47;21.13;;;;;;;15.52;100.00;100872.88;4881010;29;20025;-96
2023/08/17 06:12:54;;;;;;;32.78;18.75;;;;;;;15.67;100.00;100875.34;4920641;29;20033;-96
2023/08/17 06:15:20;;;;;;;32.72;18.85;;;;;;;15.75;100.00;100871.28;4965942;23;20423;-95
2023/08/17 06:17:45;;;;;;;30.33;19.13;;;;;;;15.92;100.00;100864.81;4904286;29;20024;-96
2023/08/17 06:20:12;;;;;;;31.67;19.23;;;;;;;15.95;100.00;100869.00;4908513;29;20530;-96
2023/08/17 06:22:40;;;;;;;31.35;18.60;;;;;;;16.21;100.00;100878.28;4905002;29;20030;-96
2023/08/17 06:25:06;;;;;;;29.15;17.90;;;;;;;16.35;100.00;100866.88;4919766;29;20407;-96
2023/08/17 06:27:33;;;;;;;29.02;17.38;;;;;;;16.56;100.00;100864.44;4915405;29;20029;-96
2023/08/17 06:29:58;;;;;;;27.17;17.13;;;;;;;16.71;100.00;100870.25;4901776;29;20033;-96
2023/08/17 06:32:24;;;;;;;25.60;16.73;;;;;;;16.94;100.00;100880.72;4901734;29;20024;-94
2023/08/17 06:34:49;;;;;;;28.27;17.35;;;;;;;16.85;100.00;100874.41;4918328;29;20471;-95
2023/08/17 06:37:15;;;;;;;29.20;17.10;;;;;;;16.84;100.00;100877.97;4914087;29;20031;-95
2023/08/17 06:39:40;;;;;;;26.77;15.27;;;;;;;16.94;100.00;100873.72;4916902;29;20036;-96
2023/08/17 06:42:05;;;;;;;25.95;16.88;;;;;;;17.14;100.00;100873.94;4917757;23;20127;-95
2023/08/17 06:44:31;;;;;;;21.30;14.70;;;;;;;19.44;97.75;100870.59;4913629;29;20484;-95
2023/08/17 06:46:57;;;;;;;23.23;14.07;;;;;;;19.38;94.44;100871.13;4884960;29;20029;-96
2023/08/17 06:49:22;;;;;;;24.30;14.18;;;;;;;19.18;98.62;100865.84;4884704;29;20029;-96
2023/08/17 06:51:48;;;;;;;26.60;16.00;;;;;;;19.36;91.25;100866.03;4887320;29;20036;-96
2023/08/17 06:54:16;;;;;;;18.35;12.43;;;;;;;22.21;73.74;100869.19;4879464;29;20033;-96
2023/08/17 06:56:42;;;;;;;21.23;13.68;;;;;;;20.55;81.49;100874.59;4909974;29;20112;-96
2023/08/17 06:59:07;;;;;;;19.13;12.88;;;;;;;19.48;87.06;100869.34;4879778;29;20484;-96
2023/08/17 07:01:32;;;;;;;21.75;13.63;;;;;;;19.19;92.87;100870.13;4881479;29;20041;-96
2023/08/17 07:03:58;;;;;;;18.35;12.57;;;;;;;20.80;79.66;100865.28;4881000;29;20025;-95
2023/08/17 07:06:24;;;;;;;15.77;11.48;;;;;;;21.96;71.65;100868.16;4881064;29;20021;-96
2023/08/17 07:08:49;;;;;;;23.65;13.07;;;;;;;22.05;68.88;100875.16;4912333;29;20068;-96
2023/08/17 07:11:15;;;;;;;15.43;10.68;;;;;;;22.47;70.22;100871.84;4881630;29;20057;-95
2023/08/17 07:13:40;;;;;;;16.90;11.00;;;;;;;22.44;67.34;100880.06;4912228;29;20245;-95
2023/08/17 07:16:06;;;;;;;15.52;10.18;;;;;;;23.37;63.54;100872.25;4880555;29;20113;-96
2023/08/17 07:18:31;;;;;;;14.73;9.98;;;;;;;23.52;62.94;100876.91;4879933;29;20033;-95
2023/08/17 07:20:58;;;;;;;15.98;10.55;;;;;;;24.80;57.78;100882.47;4912421;29;20025;-96
2023/08/17 07:23:23;;;;;;;19.80;10.27;;;;;;;26.21;53.14;100867.25;4880517;29;20029;-96
2023/08/17 07:25:48;;;;;;;12.98;9.35;;;;;;;26.85;50.16;100869.41;4880472;29;20510;-96
2023/08/17 07:28:15;;;;;;;16.02;10.25;;;;;;;23.67;57.76;100877.91;4880634;29;20029;-96
2023/08/17 07:30:41;;;;;;;13.80;8.85;;;;;;;25.41;54.46;100880.91;4884198;29;20395;-95
2023/08/17 07:33:06;;;;;;;13.25;9.77;;;;;;;24.80;55.00;100880.66;4887678;29;20025;-96
2023/08/17 07:35:31;;;;;;;12.95;9.00;;;;;;;23.33;61.74;100880.66;4879787;29;20037;-95
2023/08/17 07:37:57;;;;;;;17.23;10.25;;;;;;;21.24;69.75;100880.38;4881009;29;20029;-95
2023/08/17 07:40:22;;;;;;;16.75;10.52;;;;;;;21.09;71.21;100877.41;4881457;29;20433;-96
2023/08/17 07:42:48;;;;;;;17.98;10.48;;;;;;;22.86;63.04;100868.78;4881417;29;20037;-96
2023/08/17 07:45:13;;;;;;;19.63;11.40;;;;;;;22.21;66.61;100869.19;4880824;29;20035;-96
2023/08/17 07:47:39;;;;;;;18.38;11.80;;;;;;;23.04;62.11;100863.44;4881685;29;20396;-96
2023/08/17 07:50:05;;;;;;;20.58;12.77;;;;;;;23.99;59.60;100852.59;4880894;29;20029;-96
2023/08/17 07:52:31;;;;;;;15.80;10.57;;;;;;;23.93;59.37;100854.09;4880886;29;20041;-95
2023/08/17 07:54:56;;;;;;;16.58;9.50;;;;;;;24.61;57.05;100858.13;4880105;29;20124;-95
2023/08/17 07:57:22;;;;;;;17.20;9.75;;;;;;;25.34;54.79;100850.91;4879888;29;20052;-96
2023/08/17 07:59:47;;;;;;;23.50;10.80;;;;;;;25.65;53.64;100855.28;4879394;29;20040;-94
2023/08/17 08:02:13;;;;;;;15.82;10.27;;;;;;;25.02;54.50;100860.63;4879757;29;20487;-96
2023/08/17 08:04:38;;;;;;;10.50;7.80;;;;;;;23.83;59.98;100848.97;4911110;29;20025;-94
2023/08/17 08:07:04;;;;;;;10.32;8.50;;;;;;;24.70;57.56;100840.44;4879206;29;20029;-94
2023/08/17 08:09:29;;;;;;;17.70;9.10;;;;;;;24.32;58.45;100843.66;4880493;29;20029;-95
2023/08/17 08:11:55;;;;;;;13.48;8.52;;;;;;;23.69;59.72;100847.78;4881428;29;20022;-96
2023/08/17 08:14:20;;;;;;;10.40;7.80;;;;;;;24.81;57.48;100847.16;4879575;29;20085;-95
2023/08/17 08:16:49;;;;;;;15.60;9.32;;;;;;;23.10;61.42;100846.19;4880310;29;20088;-96
2023/08/17 08:19:14;;;;;;;12.80;7.68;;;;;;;23.25;62.10;100841.94;4881228;29;20028;-96
2023/08/17 08:21:39;;;;;;;15.48;8.88;;;;;;;22.30;65.30;100849.06;4880955;29;20055;-96
2023/08/17 08:24:05;;;;;;;15.63;8.90;;;;;;;22.52;65.95;100853.78;4910642;29;20071;-96
2023/08/17 08:26:30;;;;;;;15.32;8.27;;;;;;;23.12;62.92;100844.19;4890357;29;20028;-96
2023/08/17 08:28:56;;;;;;;14.27;7.55;;;;;;;23.99;61.27;100849.94;4912353;29;20543;-96
2023/08/17 08:31:21;;;;;;;13.88;8.60;;;;;;;24.24;60.24;100848.94;4898234;29;20044;-96
2023/08/17 08:33:46;;;;;;;13.48;7.70;;;;;;;23.63;61.24;100858.97;4888421;29;20028;-96
2023/08/17 08:36:12;;;;;;;14.65;8.00;;;;;;;23.39;62.59;100845.78;4890023;29;20051;-95
2023/08/17 08:38:37;;;;;;;14.82;7.32;;;;;;;23.96;60.36;100859.00;4878941;29;20112;-95
2023/08/17 08:41:03;;;;;;;9.70;6.90;;;;;;;23.36;62.00;100854.81;4909979;29;20035;-95
2023/08/17 08:43:29;;;;;;;15.73;7.47;;;;;;;22.98;63.51;100859.63;4878978;29;20025;-96
2023/08/17 08:45:55;;;;;;;15.80;9.23;;;;;;;21.70;68.96;100857.59;4879177;29;20039;-94
2023/08/17 08:48:22;;;;;;;15.13;9.48;;;;;;;21.26;72.91;100858.25;4878417;29;20551;-96
2023/08/17 08:50:49;;;;;;;12.70;8.45;;;;;;;21.20;75.06;100861.50;4909798;29;20047;-96
2023/08/17 08:53:17;;;;;;;11.95;7.55;;;;;;;21.98;70.86;100858.34;4909957;29;20029;-95
2023/08/17 08:55:51;;;;;;;11.98;7.57;;;;;;;21.87;70.92;100850.66;4879973;29;20054;-96
2023/08/17 08:58:17;;;;;;;16.88;8.70;;;;;;;21.22;73.52;100848.22;4879480;29;20068;-95
2023/08/17 09:00:46;;;;;;;10.10;8.40;;;;;;;20.84;76.69;100858.75;4860484;29;20455;-96
2023/08/17 09:03:12;;;;;;;13.45;8.23;;;;;;;20.71;78.66;100858.28;4901713;29;20093;-96
2023/08/17 09:05:39;;;;;;;20.52;9.63;;;;;;;21.12;75.34;100853.53;4879148;29;20033;-93
2023/08/17 09:08:08;;;;;;;11.45;7.43;;;;;;;21.55;73.80;100850.22;4881365;29;20036;-95
2023/08/17 09:10:33;;;;;;;13.38;8.25;;;;;;;21.08;77.72;100850.34;4880370;29;20053;-94
2023/08/17 09:12:59;;;;;;;21.30;9.25;;;;;;;21.36;73.62;100840.66;4878399;29;20071;-93
2023/08/17 09:15:24;;;;;;;12.95;8.25;;;;;;;21.07;76.49;100835.59;4878283;29;20020;-96
2023/08/17 09:17:53;;;;;;;11.25;8.43;;;;;;;21.00;76.68;100833.72;4898207;29;20036;-96
2023/08/17 09:20:37;;;;;;;14.07;7.82;;;;;;;21.98;73.24;100824.16;4915104;29;20036;-95
2023/08/17 09:23:04;;;;;;;12.80;7.38;;;;;;;22.54;69.94;100817.63;4886349;29;20503;-96
2023/08/17 09:25:31;;;;;;;11.05;6.90;;;;;;;23.12;67.43;100817.88;4878337;29;20032;-95
2023/08/17 09:27:57;;;;;;;16.33;9.18;;;;;;;23.16;65.76;100820.03;4882667;29;20035;-96
2023/08/17 09:30:22;;;;;;;14.95;7.90;;;;;;;23.03;64.86;100827.56;4879379;29;20124;-96
2023/08/17 09:32:49;;;;;;;11.70;6.60;;;;;;;23.37;65.27;100827.47;4886264;29;20033;-96
2023/08/17 09:35:17;;;;;;;12.93;6.43;;;;;;;23.58;64.27;100818.28;4959976;23;20076;-96
2023/08/17 09:37:47;;;;;;;12.13;8.05;;;;;;;22.23;67.29;100828.63;4997192;23;20522;-96
2023/08/17 09:40:15;;;;;;;12.68;7.40;;;;;;;22.98;65.62;100825.41;4905388;29;20119;-95
2023/08/17 09:42:43;;;;;;;15.40;8.93;;;;;;;23.29;63.55;100830.13;4900370;29;20399;-96
2023/08/17 09:45:10;;;;;;;11.18;7.57;;;;;;;23.56;63.07;100828.19;4929733;29;20471;-96
2023/08/17 09:47:35;;;;;;;15.07;6.72;;;;;;;23.80;63.13;100832.66;4919653;29;20036;-96
2023/08/17 09:50:07;;;;;;;15.63;8.50;;;;;;;23.87;61.56;100818.66;4928162;29;20036;-96
2023/08/17 09:52:32;;;;;;;18.00;7.10;;;;;;;24.60;59.80;100821.34;5129493;23;20054;-96
2023/08/17 09:55:03;;;;;;;11.85;7.22;;;;;;;24.59;60.07;100811.78;4901845;29;20111;-96
2023/08/17 09:57:29;;;;;;;19.60;8.88;;;;;;;25.59;57.08;100804.78;4897580;29;20029;-94
2023/08/17 09:59:55;;;;;;;9.82;6.43;;;;;;;25.11;58.37;100804.09;4887467;29;20380;-95
2023/08/17 10:02:23;;;;;;;13.82;7.53;;;;;;;24.61;59.79;100810.63;4897158;29;20479;-94
2023/08/17 10:04:53;;;;;;;11.15;7.30;;;;;;;25.13;58.31;100814.50;4897155;29;20029;-95
2023/08/17 10:07:20;;;;;;;13.88;6.85;;;;;;;25.31;57.34;100808.94;4897107;29;20029;-94
2023/08/17 10:09:51;;;;;;;17.25;7.53;;;;;;;25.63;56.04;100811.38;4896989;29;20021;-95
2023/08/17 10:12:17;;;;;;;;;;;;;;;25.72;56.80;100803.34;4897359;29;20040;-95
2023/08/17 10:14:55;;;;;;;11.93;6.72;;;;;;;25.65;56.59;100794.50;4895765;29;19915;-94
2023/08/17 10:17:26;;;;;;;14.13;8.38;;;;;;;23.99;61.27;100800.66;4896756;29;20191;-93
2023/08/17 10:19:58;;;;;;;12.95;6.50;;;;;;;24.40;59.64;100802.41;4897007;29;20043;-96
2023/08/17 10:22:44;;;;;;;;;;;;;;;24.85;58.69;100803.56;4897412;29;20047;-93
2023/08/17 10:25:12;;;;;;;16.50;9.10;;;;;;;24.26;59.42;100794.22;4893121;29;19923;-94
2023/08/17 10:27:38;;;;;;;13.35;6.72;;;;;;;24.67;59.41;100795.91;4896824;29;20364;-91
2023/08/17 10:30:04;;;;;;;11.13;6.32;;;;;;;26.01;55.86;100797.34;4896405;29;20040;-92
2023/08/17 10:32:30;;;;;;;10.13;5.30;;;;;;;25.94;55.21;100797.22;4896068;29;20024;-92
2023/08/17 10:34:57;;;;;;;30.42;7.38;;;;;;;25.74;53.18;100806.66;4899013;29;20069;-92
2023/08/17 10:37:24;;;;;;;18.73;7.38;;;;;;;25.75;54.21;100795.91;4900252;29;20384;-91
2023/08/17 10:39:50;;;;;;;9.50;6.68;;;;;;;25.52;54.46;100797.75;4899570;29;20035;-91
2023/08/17 10:42:29;;;;;;;9.30;5.90;;;;;;;24.62;56.80;100806.97;4900705;29;20395;-93
2023/08/17 10:44:55;;;;;;;9.20;5.20;;;;;;;25.09;56.64;100803.47;4899437;29;20046;-91
2023/08/17 10:47:32;;;;;;;13.98;5.15;;;;;;;24.84;56.77;100809.84;4900337;29;20462;-92
2023/08/17 10:49:59;;;;;;;11.00;5.10;;;;;;;24.23;57.93;100807.72;4899629;29;20480;-93
2023/08/17 10:52:32;;;;;;;17.95;4.22;;;;;;;24.23;57.39;100802.44;4895050;29;20037;-93
2023/08/17 10:55:02;;;;;;;11.02;3.97;;;;;;;;;;4897142;29;20111;-93
2023/08/17 10:57:43;;;;;;;9.23;3.60;;;;;;;24.46;56.71;100793.81;4898539;29;20033;-93
2023/08/17 11:00:16;;;;;;;6.55;3.40;;;;;;;24.46;57.09;100796.47;4900140;29;20104;-94
2023/08/17 11:02:51;;;;;;;7.72;3.08;;;;;;;24.29;57.06;100796.50;4899653;29;20029;-93
2023/08/17 11:05:34;;;;;;;3.90;2.63;;;;;;;23.88;58.50;100793.13;4899732;29;20076;-94
2023/08/17 11:08:00;;;;;;;8.52;3.10;;;;;;;23.80;58.54;100791.31;4899037;29;20119;-94
2023/08/17 11:10:25;;;;;;;4.72;2.38;;;;;;;23.85;58.96;100786.38;4898004;29;20170;-93
2023/08/17 11:12:56;;;;;;;6.18;2.45;;;;;;;24.25;58.28;100784.63;4900107;29;20032;-93
2023/08/17 11:15:21;;;;;;;;;;;;;;;24.63;56.79;100782.25;4900154;29;20036;-93
2023/08/17 11:17:47;;;;;;;5.07;2.13;;;;;;;24.68;56.79;100777.25;4898660;29;19916;-94
2023/08/17 11:20:12;;;;;;;5.05;2.38;;;;;;;24.00;57.88;100778.59;4900186;29;20785;-95